Portada
METAR-TAF:

METAR-TAF

Aeroports :

Luang Prabang, Laos

latitud: 19-53N, longitud: 102-08E, altitud: 305 m

Observació

L'informe es va fer fa 1 hora i 9 minuts, a les 12:00 UTC
Vent calma
Temperatura 30°C
Humitat 70%
Pressió 1007 hPa
Visibilitat 10 km o més
sense núvols per sota de 1500 mi sense presència de cumulonimbus.

METAR: VLLB 231200Z 00000KT CAVOK 30/24 Q1007 NOSIG

Hora: 20:09 (13:09 UTC)

Pronòstic

L'informe es va fer fa 2 hores i 9 minuts, a les 11:00 UTC
Pronòstic vàlid del 23 a les 12 UTC al 24 a les 12 UTC
Vent 4 kt del Nord-Est
Visibilitat: 5000 m
Escasses núvols a una alçada de 1800 ft
Núvols disperses a una alçada de 6000 ft
boirina

TAF: VLLB 231100Z 2312/2412 04004KT 5000 BR FEW018 SCT060

Observacions i pronòstics meteorològics de més de 4000 aeroports (METAR i TAF).

Les estacions disponibles són els punts grocs i vermells al mapa.

Posi el ratolí al punt desitjat per veure el nom de l'estació.

Feu clic per veure les observacions i els pronòstics meteorològics.

Per canviar el mapa: feu clic els botons verds amb una creu de color negre per apropar; al botó verd amb un guió per allunyar la imatge; o en les fletxes verdes per a mapes adjacents.


METAR-TAF: